Time;durP1;ratioP1;P1;durP2;ratioP2;P2;SDS_P1;SDS_P2;PMS_P1;PMS_P2;Temp;Humidity;BMP_temperature;BMP_pressure;BME280_temperature;BME280_humidity;BME280_pressure;Samples;Min_cycle;Max_cycle;Signal;HPM_P1;HPM_P2
2021/07/03 00:00:46;;;;;;;6.15;3.28;;;22.10;59.90;;;;;;5032956;28;20104;-69
2021/07/03 00:03:12;;;;;;;5.82;3.35;;;22.10;59.90;;;;;;5032776;28;20053;-69
2021/07/03 00:05:37;;;;;;;6.20;3.35;;;22.00;59.90;;;;;;5032668;28;20440;-69
2021/07/03 00:08:03;;;;;;;6.03;3.38;;;22.00;59.90;;;;;;5032961;28;20057;-69
2021/07/03 00:10:29;;;;;;;5.95;3.38;;;22.00;59.90;;;;;;5032673;28;20075;-69
2021/07/03 00:12:55;;;;;;;6.55;3.30;;;22.00;59.90;;;;;;5032590;28;20033;-69
2021/07/03 00:15:21;;;;;;;8.20;3.65;;;22.00;59.90;;;;;;5033810;28;20021;-69
2021/07/03 00:17:51;;;;;;;5.63;3.47;;;22.00;59.90;;;;;;5036475;28;20025;-69
2021/07/03 00:20:18;;;;;;;5.22;3.20;;;22.00;60.00;;;;;;5036286;28;20049;-70
2021/07/03 00:22:44;;;;;;;6.10;3.47;;;22.00;59.90;;;;;;5036536;28;20033;-69
2021/07/03 00:25:10;;;;;;;6.35;3.20;;;22.00;59.90;;;;;;5036480;28;20022;-69
2021/07/03 00:27:36;;;;;;;6.38;3.28;;;22.00;59.90;;;;;;5036208;28;20037;-70
2021/07/03 00:30:02;;;;;;;6.03;3.30;;;22.00;59.90;;;;;;5036331;28;20018;-69
2021/07/03 00:32:28;;;;;;;7.10;3.72;;;22.00;59.90;;;;;;5036284;28;20088;-70
2021/07/03 00:34:55;;;;;;;6.13;3.45;;;22.00;60.00;;;;;;5036062;28;20045;-70
2021/07/03 00:37:20;;;;;;;5.40;3.15;;;22.00;60.00;;;;;;5036170;28;20037;-69
2021/07/03 00:39:46;;;;;;;5.72;3.67;;;22.00;60.00;;;;;;5036158;28;20022;-69
2021/07/03 00:42:11;;;;;;;6.90;3.60;;;22.00;59.90;;;;;;5036159;28;20032;-70
2021/07/03 00:44:37;;;;;;;5.60;3.13;;;22.00;60.00;;;;;;5035946;28;20450;-69
2021/07/03 00:47:05;;;;;;;6.50;3.13;;;22.00;60.00;;;;;;5036089;28;20071;-69
2021/07/03 00:49:32;;;;;;;5.55;3.10;;;22.00;60.00;;;;;;5036060;28;20052;-69
2021/07/03 00:51:57;;;;;;;5.93;3.00;;;22.00;60.00;;;;;;5035789;28;20041;-69
2021/07/03 00:54:23;;;;;;;6.63;3.40;;;21.90;60.00;;;;;;5035777;28;20037;-70
2021/07/03 00:57:01;;;;;;;9.07;3.75;;;21.90;60.00;;;;;;5035914;28;20052;-69
2021/07/03 00:59:48;;;;;;;6.25;3.15;;;21.90;60.00;;;;;;5035963;28;20037;-69
2021/07/03 01:02:17;;;;;;;6.65;3.47;;;21.90;60.00;;;;;;5035375;28;20485;-70
2021/07/03 01:04:43;;;;;;;5.65;3.22;;;21.90;60.00;;;;;;5035879;28;20017;-69
2021/07/03 01:07:09;;;;;;;6.03;3.30;;;21.90;60.00;;;;;;5035614;28;20427;-70
2021/07/03 01:09:35;;;;;;;7.53;3.47;;;21.90;60.00;;;;;;5035820;28;20079;-69
2021/07/03 01:12:03;;;;;;;5.90;3.50;;;21.90;60.10;;;;;;5034475;28;20030;-69
2021/07/03 01:14:29;;;;;;;5.57;3.28;;;21.90;60.00;;;;;;5035329;28;20132;-70
2021/07/03 01:16:54;;;;;;;6.35;3.25;;;21.90;60.00;;;;;;5035349;28;20140;-69
2021/07/03 01:19:21;;;;;;;5.20;3.15;;;21.80;60.00;;;;;;5035347;28;20105;-69
2021/07/03 01:21:50;;;;;;;5.63;2.97;;;21.80;60.10;;;;;;5034082;28;20025;-70
2021/07/03 01:24:16;;;;;;;6.30;3.58;;;21.80;60.10;;;;;;5033933;28;20025;-69
2021/07/03 01:26:47;;;;;;;4.95;2.95;;;21.80;60.10;;;;;;5034947;28;20031;-69
2021/07/03 01:29:13;;;;;;;5.70;3.05;;;21.80;60.10;;;;;;5042113;28;20029;-70
2021/07/03 01:31:40;;;;;;;6.45;3.10;;;21.80;60.10;;;;;;5035235;28;20393;-70
2021/07/03 01:34:06;;;;;;;5.28;3.10;;;21.80;60.10;;;;;;5035243;28;20476;-70
2021/07/03 01:36:32;;;;;;;7.72;4.10;;;21.80;60.10;;;;;;5035017;28;20025;-70
2021/07/03 01:38:57;;;;;;;6.38;3.42;;;21.80;60.10;;;;;;5035065;28;20392;-69
2021/07/03 01:41:23;;;;;;;5.03;2.75;;;21.80;60.10;;;;;;5035379;28;20068;-69
2021/07/03 01:43:48;;;;;;;8.13;3.50;;;21.70;60.20;;;;;;5034977;28;20076;-69
2021/07/03 01:46:14;;;;;;;6.15;3.47;;;21.70;60.10;;;;;;5035527;28;20034;-70
2021/07/03 01:48:40;;;;;;;4.65;2.53;;;21.70;60.10;;;;;;5033601;28;20024;-69
2021/07/03 01:51:06;;;;;;;5.75;3.08;;;21.70;60.20;;;;;;5035220;28;20539;-70
2021/07/03 01:53:32;;;;;;;6.35;3.63;;;21.70;60.20;;;;;;5034843;28;20412;-70
2021/07/03 01:55:57;;;;;;;5.68;3.03;;;21.70;60.20;;;;;;5034885;28;20029;-69
2021/07/03 01:58:25;;;;;;;6.30;3.55;;;21.70;60.20;;;;;;5035072;28;20100;-70
2021/07/03 02:00:55;;;;;;;6.63;3.17;;;21.70;60.20;;;;;;5034804;28;20021;-69
2021/07/03 02:03:21;;;;;;;5.88;3.15;;;21.70;60.20;;;;;;5033280;28;20029;-69
2021/07/03 02:05:47;;;;;;;5.55;3.13;;;21.70;60.20;;;;;;5034585;28;20465;-69
2021/07/03 02:08:13;;;;;;;6.30;3.42;;;21.60;60.30;;;;;;5034538;28;20026;-70
2021/07/03 02:10:39;;;;;;;5.47;3.15;;;21.70;60.30;;;;;;5034618;28;20018;-69
2021/07/03 02:13:05;;;;;;;7.70;3.50;;;21.60;60.30;;;;;;5034417;28;20064;-70
2021/07/03 02:15:32;;;;;;;6.03;3.33;;;21.60;60.30;;;;;;5034593;28;20022;-69
2021/07/03 02:17:57;;;;;;;5.63;3.20;;;21.60;60.20;;;;;;5034442;28;20037;-70
2021/07/03 02:20:23;;;;;;;6.50;3.22;;;21.60;60.30;;;;;;5034385;28;20097;-69
2021/07/03 02:22:50;;;;;;;6.15;3.28;;;21.60;60.30;;;;;;5034501;28;20469;-69
2021/07/03 02:25:15;;;;;;;5.50;3.10;;;21.60;60.30;;;;;;5034331;28;20025;-70
2021/07/03 02:27:41;;;;;;;5.75;3.25;;;21.60;60.30;;;;;;5034298;28;20021;-69
2021/07/03 02:30:09;;;;;;;5.60;3.10;;;21.60;60.30;;;;;;5034634;28;20418;-68
2021/07/03 02:32:35;;;;;;;4.93;3.15;;;21.60;60.30;;;;;;5032927;28;20087;-70
2021/07/03 02:35:00;;;;;;;5.95;3.22;;;21.60;60.30;;;;;;5034371;28;20057;-69
2021/07/03 02:37:27;;;;;;;6.03;3.13;;;21.60;60.40;;;;;;5033581;28;20493;-70
2021/07/03 02:39:53;;;;;;;6.38;3.47;;;21.50;60.40;;;;;;5034265;28;20025;-69
2021/07/03 02:42:18;;;;;;;6.05;3.42;;;21.50;60.40;;;;;;5034401;28;20113;-69
2021/07/03 02:44:44;;;;;;;6.13;3.50;;;21.60;60.40;;;;;;5038414;28;20112;-69
2021/07/03 02:47:09;;;;;;;6.95;3.47;;;21.50;60.40;;;;;;5034151;28;20120;-70
2021/07/03 02:49:35;;;;;;;5.78;3.30;;;21.50;60.40;;;;;;5033980;28;20560;-69
2021/07/03 02:52:00;;;;;;;6.53;3.38;;;21.50;60.40;;;;;;5033893;28;20041;-70
2021/07/03 02:54:26;;;;;;;6.32;3.30;;;21.50;60.40;;;;;;5034161;28;20108;-69
2021/07/03 02:56:57;;;;;;;5.50;3.08;;;21.50;60.40;;;;;;5033963;28;20461;-70
2021/07/03 02:59:23;;;;;;;5.15;2.95;;;21.50;60.40;;;;;;5032820;28;20026;-70
2021/07/03 03:01:49;;;;;;;5.68;3.20;;;21.50;60.40;;;;;;5033829;28;20032;-70
2021/07/03 03:04:14;;;;;;;5.88;3.55;;;21.50;60.40;;;;;;5033723;28;20108;-69
2021/07/03 03:06:40;;;;;;;5.95;3.33;;;21.50;60.40;;;;;;5033850;28;20109;-70
2021/07/03 03:09:05;;;;;;;5.85;2.72;;;21.50;60.40;;;;;;5032625;28;20090;-70
2021/07/03 03:11:31;;;;;;;5.63;3.30;;;21.50;60.40;;;;;;5033781;28;20468;-69
2021/07/03 03:13:56;;;;;;;7.93;3.67;;;21.50;60.40;;;;;;5033867;28;20055;-69
2021/07/03 03:16:24;;;;;;;6.07;3.28;;;21.50;60.50;;;;;;5034211;28;20025;-70
2021/07/03 03:18:50;;;;;;;5.22;3.40;;;21.50;60.50;;;;;;5034188;28;20163;-70
2021/07/03 03:21:15;;;;;;;5.63;3.20;;;21.50;60.40;;;;;;5033917;28;20480;-70
2021/07/03 03:23:41;;;;;;;5.85;3.03;;;21.50;60.50;;;;;;5034052;28;20175;-70
2021/07/03 03:26:07;;;;;;;5.57;3.15;;;21.50;60.40;;;;;;5039038;28;20038;-70
2021/07/03 03:28:32;;;;;;;5.13;2.75;;;21.50;60.50;;;;;;5041672;28;20025;-70
2021/07/03 03:30:58;;;;;;;5.80;3.30;;;21.50;60.50;;;;;;5041995;28;20075;-70
2021/07/03 03:33:23;;;;;;;6.18;3.50;;;21.50;60.40;;;;;;5041646;28;20124;-70
2021/07/03 03:35:49;;;;;;;6.63;3.42;;;21.50;60.40;;;;;;5042003;28;20021;-70
2021/07/03 03:38:15;;;;;;;5.38;2.97;;;21.50;60.50;;;;;;5042495;28;20030;-70
2021/07/03 03:40:42;;;;;;;5.25;2.88;;;21.50;60.50;;;;;;5042211;28;20022;-70
2021/07/03 03:43:09;;;;;;;6.45;3.40;;;21.40;60.50;;;;;;5042309;28;20032;-69
2021/07/03 03:45:34;;;;;;;5.72;3.33;;;21.40;60.40;;;;;;5041957;28;20028;-70
2021/07/03 03:48:00;;;;;;;6.60;3.33;;;21.40;60.40;;;;;;5042258;28;20110;-70
2021/07/03 03:50:26;;;;;;;5.72;2.92;;;21.40;60.50;;;;;;5046360;28;20013;-70
2021/07/03 03:52:51;;;;;;;6.15;3.72;;;21.40;60.50;;;;;;5044589;28;20033;-70
2021/07/03 03:55:17;;;;;;;5.53;3.08;;;21.40;60.50;;;;;;5045816;28;20026;-70
2021/07/03 03:57:42;;;;;;;5.60;3.10;;;21.40;60.50;;;;;;5046076;28;20062;-70
2021/07/03 04:00:09;;;;;;;5.30;3.00;;;21.40;60.50;;;;;;5047253;28;20060;-70
2021/07/03 04:02:35;;;;;;;6.20;3.25;;;21.40;60.50;;;;;;5041148;28;20034;-69
2021/07/03 04:05:01;;;;;;;5.80;3.25;;;21.40;60.50;;;;;;5037257;28;20083;-70
2021/07/03 04:07:26;;;;;;;6.15;3.22;;;21.40;60.50;;;;;;5037005;28;20057;-70
2021/07/03 04:09:52;;;;;;;5.95;3.42;;;21.40;60.50;;;;;;5036729;28;20029;-69
2021/07/03 04:12:18;;;;;;;6.90;3.28;;;21.40;60.40;;;;;;5036686;28;20162;-70
2021/07/03 04:14:44;;;;;;;5.88;3.33;;;21.30;60.50;;;;;;5036938;28;20041;-69
2021/07/03 04:17:09;;;;;;;5.18;3.05;;;21.30;60.50;;;;;;5036590;28;20036;-70
2021/07/03 04:19:35;;;;;;;6.05;3.28;;;21.30;60.40;;;;;;5036710;28;20025;-69
2021/07/03 04:22:01;;;;;;;6.20;3.47;;;21.40;60.40;;;;;;5036702;28;20032;-70
2021/07/03 04:24:26;;;;;;;6.00;3.30;;;21.30;60.40;;;;;;5036788;28;20037;-70
2021/07/03 04:26:53;;;;;;;5.63;3.13;;;21.30;60.40;;;;;;5036515;28;20017;-69
2021/07/03 04:29:19;;;;;;;6.45;3.53;;;21.30;60.40;;;;;;5036417;28;20032;-69
2021/07/03 04:31:45;;;;;;;6.43;3.15;;;21.30;60.40;;;;;;5036197;28;20050;-69
2021/07/03 04:34:10;;;;;;;6.20;3.42;;;21.30;60.40;;;;;;5036867;28;20085;-70
2021/07/03 04:36:36;;;;;;;6.22;3.63;;;21.30;60.40;;;;;;5036536;28;20033;-70
2021/07/03 04:39:02;;;;;;;5.78;3.10;;;21.40;60.40;;;;;;5036608;28;20029;-70
2021/07/03 04:41:28;;;;;;;5.72;3.45;;;21.30;60.40;;;;;;5036669;28;20049;-70
2021/07/03 04:43:54;;;;;;;6.28;3.13;;;21.30;60.40;;;;;;5036680;28;20068;-70
2021/07/03 04:46:19;;;;;;;5.82;3.03;;;21.30;60.40;;;;;;5036473;28;20283;-69
2021/07/03 04:48:45;;;;;;;5.60;3.40;;;21.30;60.40;;;;;;5036939;28;20018;-70
2021/07/03 04:51:10;;;;;;;6.07;3.45;;;21.30;60.40;;;;;;5045717;28;20116;-70
2021/07/03 04:53:36;;;;;;;5.82;3.40;;;21.30;60.40;;;;;;5038042;28;20033;-70
2021/07/03 04:56:02;;;;;;;5.88;3.25;;;21.30;60.40;;;;;;5036041;28;20025;-70
2021/07/03 04:58:27;;;;;;;5.75;3.08;;;21.30;60.40;;;;;;5036457;28;20435;-70
2021/07/03 05:00:53;;;;;;;5.32;3.25;;;21.30;60.40;;;;;;5035121;28;20029;-70
2021/07/03 05:03:18;;;;;;;5.57;3.25;;;21.30;60.30;;;;;;5035788;28;20029;-70
2021/07/03 05:05:44;;;;;;;6.10;3.28;;;21.30;60.40;;;;;;5035673;28;20030;-70
2021/07/03 05:08:09;;;;;;;5.53;3.42;;;21.30;60.30;;;;;;5035775;28;20393;-70
2021/07/03 05:10:35;;;;;;;6.05;2.83;;;21.30;60.30;;;;;;5035648;28;20384;-69
2021/07/03 05:13:00;;;;;;;5.53;2.97;;;21.30;60.40;;;;;;5035689;28;20124;-70
2021/07/03 05:15:27;;;;;;;6.10;3.22;;;21.30;60.40;;;;;;5036678;28;20030;-69
2021/07/03 05:17:53;;;;;;;5.32;3.00;;;21.30;60.40;;;;;;5036973;28;20095;-70
2021/07/03 05:20:18;;;;;;;5.38;3.30;;;21.30;60.30;;;;;;5036521;28;20481;-70
2021/07/03 05:22:44;;;;;;;5.90;3.40;;;21.30;60.30;;;;;;5036922;28;20029;-70
2021/07/03 05:25:10;;;;;;;5.93;3.40;;;21.30;60.30;;;;;;5037389;28;20079;-70
2021/07/03 05:27:36;;;;;;;6.18;3.60;;;21.30;60.30;;;;;;5037297;28;20038;-70
2021/07/03 05:30:03;;;;;;;6.03;3.35;;;21.30;60.20;;;;;;5037058;28;20021;-70
2021/07/03 05:32:29;;;;;;;6.00;3.40;;;21.30;60.20;;;;;;5036321;28;20050;-70
2021/07/03 05:34:54;;;;;;;6.57;3.50;;;21.40;60.20;;;;;;5036982;28;20394;-70
2021/07/03 05:37:20;;;;;;;5.40;3.03;;;21.40;60.10;;;;;;5036955;28;20022;-70
2021/07/03 05:39:45;;;;;;;6.97;3.63;;;21.40;60.10;;;;;;5036693;28;20021;-70
2021/07/03 05:42:11;;;;;;;6.43;3.75;;;21.40;60.10;;;;;;5036665;28;20500;-71
2021/07/03 05:44:37;;;;;;;6.03;3.30;;;21.40;60.10;;;;;;5036886;28;20029;-70
2021/07/03 05:47:02;;;;;;;6.13;3.38;;;21.40;60.00;;;;;;5036235;28;20025;-70
2021/07/03 05:49:28;;;;;;;5.43;3.03;;;21.40;60.00;;;;;;5036344;28;20033;-70
2021/07/03 05:51:54;;;;;;;5.97;3.70;;;21.40;60.00;;;;;;5039827;28;20021;-70
2021/07/03 05:54:19;;;;;;;6.43;3.70;;;21.40;60.00;;;;;;5040403;28;20290;-70
2021/07/03 05:56:46;;;;;;;6.88;3.63;;;21.40;60.00;;;;;;5036323;28;20083;-70
2021/07/03 05:59:12;;;;;;;6.88;3.47;;;21.50;59.90;;;;;;5035876;28;20029;-70
2021/07/03 06:01:38;;;;;;;4.85;3.03;;;21.40;59.90;;;;;;5035612;28;20024;-70
2021/07/03 06:04:04;;;;;;;5.97;2.92;;;21.50;59.90;;;;;;5035149;28;20053;-70
2021/07/03 06:06:30;;;;;;;6.28;3.45;;;21.50;59.80;;;;;;5036124;28;20079;-70
2021/07/03 06:08:56;;;;;;;6.88;3.65;;;21.50;59.90;;;;;;5040888;28;20456;-70
2021/07/03 06:11:22;;;;;;;6.25;3.50;;;21.50;59.90;;;;;;5041470;28;20029;-71
2021/07/03 06:13:47;;;;;;;5.88;3.47;;;21.50;59.90;;;;;;5044647;28;20068;-70
2021/07/03 06:16:14;;;;;;;5.80;3.22;;;21.50;59.90;;;;;;5044810;28;20018;-70
2021/07/03 06:18:40;;;;;;;5.75;3.58;;;21.50;59.90;;;;;;5045932;28;20131;-70
2021/07/03 06:21:05;;;;;;;5.22;3.35;;;21.50;59.80;;;;;;5045234;28;20070;-70
2021/07/03 06:23:31;;;;;;;6.35;3.70;;;21.50;59.80;;;;;;5047894;28;20393;-70
2021/07/03 06:25:59;;;;;;;5.40;3.15;;;21.50;59.80;;;;;;5043960;28;20033;-70
2021/07/03 06:28:26;;;;;;;5.65;3.25;;;21.50;59.80;;;;;;5045568;28;20045;-70
2021/07/03 06:30:52;;;;;;;5.85;3.40;;;21.50;59.70;;;;;;5044912;28;20029;-70
2021/07/03 06:33:17;;;;;;;6.13;3.38;;;21.50;59.80;;;;;;5035838;28;20107;-70
2021/07/03 06:35:43;;;;;;;5.85;3.35;;;21.40;59.80;;;;;;5034286;28;20385;-70
2021/07/03 06:38:08;;;;;;;5.85;3.40;;;21.50;59.80;;;;;;5034508;28;20021;-70
2021/07/03 06:40:34;;;;;;;6.43;3.65;;;21.50;59.70;;;;;;5033987;28;20029;-71
2021/07/03 06:43:00;;;;;;;6.40;3.72;;;21.50;59.60;;;;;;5033987;28;20037;-70
2021/07/03 06:45:25;;;;;;;6.32;3.40;;;21.50;59.50;;;;;;5034166;28;20025;-71
2021/07/03 06:47:51;;;;;;;6.47;3.75;;;21.50;59.40;;;;;;5032821;28;20029;-70
2021/07/03 06:50:16;;;;;;;5.80;3.33;;;21.60;59.40;;;;;;5033886;28;20022;-70
2021/07/03 06:52:42;;;;;;;5.82;3.33;;;21.60;59.30;;;;;;5033792;28;20063;-70
2021/07/03 06:55:07;;;;;;;6.32;3.67;;;21.60;59.30;;;;;;5033922;28;20025;-70
2021/07/03 06:57:33;;;;;;;7.13;3.72;;;21.60;59.30;;;;;;5034282;28;20056;-70
2021/07/03 06:59:59;;;;;;;6.13;3.55;;;21.70;59.20;;;;;;5033860;28;20076;-71
2021/07/03 07:02:24;;;;;;;7.03;3.70;;;21.60;59.20;;;;;;5033775;28;20033;-70
2021/07/03 07:04:50;;;;;;;5.53;3.40;;;21.70;59.20;;;;;;5033829;28;20047;-70
2021/07/03 07:07:15;;;;;;;6.20;3.90;;;21.70;59.20;;;;;;5033839;28;20040;-70
2021/07/03 07:09:41;;;;;;;5.68;3.20;;;21.70;59.10;;;;;;5033660;28;20417;-70
2021/07/03 07:12:07;;;;;;;6.60;3.70;;;21.80;59.10;;;;;;5033803;28;20033;-70
2021/07/03 07:14:33;;;;;;;6.13;3.72;;;21.80;59.00;;;;;;5033989;28;20029;-70
2021/07/03 07:16:59;;;;;;;6.15;3.15;;;21.80;58.90;;;;;;5033857;28;20021;-70
2021/07/03 07:19:24;;;;;;;5.40;3.25;;;21.80;58.90;;;;;;5033695;28;20033;-70
2021/07/03 07:21:50;;;;;;;5.80;3.33;;;21.80;58.90;;;;;;5033297;28;20026;-70
2021/07/03 07:24:16;;;;;;;5.88;3.70;;;21.80;59.00;;;;;;5033490;28;20017;-70
2021/07/03 07:26:42;;;;;;;5.72;3.08;;;21.80;59.00;;;;;;5032964;28;20021;-70
2021/07/03 07:29:07;;;;;;;6.63;3.70;;;21.80;59.10;;;;;;5033357;28;20039;-70
2021/07/03 07:31:33;;;;;;;6.38;3.30;;;21.80;59.10;;;;;;5032614;28;20025;-70
2021/07/03 07:34:05;;;;;;;6.15;3.63;;;21.80;59.00;;;;;;5033116;28;20061;-70
2021/07/03 07:36:30;;;;;;;5.03;2.95;;;21.80;59.10;;;;;;5032434;28;20381;-71
2021/07/03 07:38:56;;;;;;;6.18;3.50;;;21.80;59.10;;;;;;5032578;28;20032;-70
2021/07/03 07:41:21;;;;;;;7.25;3.35;;;21.80;59.00;;;;;;5032630;28;20025;-70
2021/07/03 07:43:47;;;;;;;6.03;3.47;;;21.80;58.90;;;;;;5032574;28;20032;-70
2021/07/03 07:46:12;;;;;;;6.03;3.63;;;22.00;58.80;;;;;;5031407;28;20132;-70
2021/07/03 07:48:38;;;;;;;6.03;3.30;;;21.90;58.80;;;;;;5031444;28;20100;-70
2021/07/03 07:51:03;;;;;;;6.45;3.13;;;22.00;58.70;;;;;;5033239;28;20029;-70
2021/07/03 07:53:30;;;;;;;7.63;3.97;;;22.00;58.70;;;;;;5038954;28;20048;-70
2021/07/03 07:55:57;;;;;;;5.55;3.05;;;22.00;58.70;;;;;;5038285;28;20021;-70
2021/07/03 07:58:24;;;;;;;6.00;3.53;;;22.00;58.70;;;;;;5039462;28;20018;-70
2021/07/03 08:00:50;;;;;;;5.45;3.20;;;22.00;58.60;;;;;;5034116;28;20462;-70
2021/07/03 08:03:15;;;;;;;5.53;3.25;;;22.00;58.60;;;;;;5038162;28;20044;-70
2021/07/03 08:05:41;;;;;;;5.68;3.65;;;22.00;58.60;;;;;;5040070;28;20017;-69
2021/07/03 08:08:07;;;;;;;5.78;3.17;;;22.00;58.60;;;;;;5037540;28;20072;-70
2021/07/03 08:10:36;;;;;;;6.40;3.45;;;22.00;58.60;;;;;;5032614;28;20032;-70
2021/07/03 08:13:04;;;;;;;5.97;3.28;;;22.00;58.60;;;;;;5032183;28;20497;-70
2021/07/03 08:15:31;;;;;;;5.63;3.10;;;22.00;58.60;;;;;;5032678;28;20026;-70
2021/07/03 08:17:57;;;;;;;5.35;3.00;;;22.00;58.60;;;;;;5038180;28;20081;-70
2021/07/03 08:20:23;;;;;;;5.18;3.00;;;22.00;58.60;;;;;;5038986;28;20025;-70
2021/07/03 08:22:50;;;;;;;6.68;3.60;;;22.00;58.50;;;;;;5041314;28;20022;-70
2021/07/03 08:25:18;;;;;;;5.78;3.83;;;22.10;58.50;;;;;;5039649;28;20036;-70
2021/07/03 08:27:44;;;;;;;6.13;3.42;;;22.00;58.50;;;;;;5035726;28;20392;-70
2021/07/03 08:30:10;;;;;;;4.95;3.03;;;22.00;58.60;;;;;;5035691;28;20021;-70
2021/07/03 08:32:36;;;;;;;6.28;3.70;;;22.10;58.50;;;;;;5032481;28;20555;-70
2021/07/03 08:35:02;;;;;;;5.50;3.13;;;22.10;58.50;;;;;;5041587;28;20037;-70
2021/07/03 08:37:28;;;;;;;6.30;3.30;;;22.10;58.50;;;;;;5044915;28;20017;-69
2021/07/03 08:39:53;;;;;;;5.47;3.35;;;22.10;58.50;;;;;;5044127;28;20366;-70
2021/07/03 08:42:19;;;;;;;5.80;3.35;;;22.10;58.50;;;;;;5042120;28;20026;-70
2021/07/03 08:44:46;;;;;;;5.10;3.10;;;22.10;58.50;;;;;;5045406;28;20021;-70
2021/07/03 08:47:12;;;;;;;5.88;3.20;;;22.10;58.50;;;;;;5043867;28;20037;-69
2021/07/03 08:49:38;;;;;;;6.30;3.35;;;22.10;58.40;;;;;;5039083;28;20029;-70
2021/07/03 08:52:03;;;;;;;5.82;3.13;;;22.10;58.40;;;;;;5037401;28;20116;-70
2021/07/03 08:54:29;;;;;;;6.68;3.03;;;22.10;58.40;;;;;;5038790;28;20053;-70
2021/07/03 08:57:00;;;;;;;6.53;3.40;;;22.20;58.40;;;;;;5038125;28;20022;-70
2021/07/03 08:59:26;;;;;;;5.68;2.88;;;22.20;58.30;;;;;;5038045;28;20021;-70
2021/07/03 09:01:54;;;;;;;5.63;3.13;;;22.20;58.30;;;;;;5036914;28;20074;-70
2021/07/03 09:04:36;;;;;;;6.95;3.20;;;22.10;58.40;;;;;;5037610;28;20025;-70
2021/07/03 09:07:11;;;;;;;5.60;3.22;;;22.10;58.40;;;;;;5037415;28;20117;-70
2021/07/03 09:09:37;;;;;;;4.80;2.30;;;22.10;58.40;;;;;;5036790;28;20044;-70
2021/07/03 09:12:03;;;;;;;5.22;2.63;;;22.20;58.40;;;;;;5036682;28;20029;-70
2021/07/03 09:14:29;;;;;;;5.55;3.00;;;22.20;58.40;;;;;;5037008;28;20473;-70
2021/07/03 09:17:01;;;;;;;4.90;2.70;;;22.20;58.40;;;;;;5037019;28;20121;-70
2021/07/03 09:19:28;;;;;;;4.95;3.00;;;22.20;58.40;;;;;;5036479;28;20021;-70
2021/07/03 09:21:54;;;;;;;5.85;2.97;;;22.10;58.60;;;;;;5036959;28;20072;-70
2021/07/03 09:24:20;;;;;;;4.85;2.20;;;22.10;58.50;;;;;;5036435;28;20045;-70
2021/07/03 09:27:00;;;;;;;5.60;3.15;;;22.20;58.50;;;;;;5036122;28;20029;-70
2021/07/03 09:29:25;;;;;;;5.13;2.97;;;22.20;58.40;;;;;;5036182;28;20057;-70
2021/07/03 09:31:51;;;;;;;5.82;3.30;;;22.20;58.40;;;;;;5035716;28;20075;-70
2021/07/03 09:34:16;;;;;;;6.25;3.42;;;22.20;58.40;;;;;;5041119;28;20060;-70
2021/07/03 09:36:42;;;;;;;5.55;3.40;;;22.20;58.30;;;;;;5034669;28;20028;-70
2021/07/03 09:39:08;;;;;;;5.65;3.20;;;22.20;58.30;;;;;;5036047;28;20030;-70
2021/07/03 09:41:36;;;;;;;5.15;3.05;;;22.20;58.30;;;;;;5036213;28;20021;-70
2021/07/03 09:44:12;;;;;;;6.22;3.60;;;22.20;58.30;;;;;;5036231;28;20341;-70
2021/07/03 09:46:47;;;;;;;5.80;3.38;;;22.20;58.30;;;;;;5035171;28;20033;-70
2021/07/03 09:49:16;;;;;;;7.97;3.88;;;22.20;58.30;;;;;;5035308;28;20017;-70
2021/07/03 09:51:53;;;;;;;4.35;2.88;;;22.30;58.30;;;;;;5034932;28;20469;-70
2021/07/03 09:54:21;;;;;;;5.75;3.33;;;22.30;58.20;;;;;;5035083;28;20050;-70
2021/07/03 09:56:48;;;;;;;4.97;3.08;;;22.20;58.30;;;;;;5033446;28;20049;-70
2021/07/03 09:59:14;;;;;;;4.90;3.05;;;22.30;58.30;;;;;;5034885;28;20430;-70
2021/07/03 10:01:40;;;;;;;5.47;3.13;;;22.30;58.30;;;;;;5034883;28;20388;-70
2021/07/03 10:04:07;;;;;;;4.50;2.58;;;22.30;58.30;;;;;;5034772;28;20060;-70
2021/07/03 10:06:44;;;;;;;5.90;3.35;;;22.30;58.30;;;;;;5033329;28;20021;-70
2021/07/03 10:09:31;;;;;;;5.65;2.88;;;22.30;58.30;;;;;;5034802;28;20029;-71
2021/07/03 10:12:01;;;;;;;5.78;3.20;;;22.30;58.40;;;;;;5034582;28;20041;-70
2021/07/03 10:14:27;;;;;;;6.90;3.20;;;22.20;58.40;;;;;;5034352;28;20469;-70
2021/07/03 10:17:03;;;;;;;4.65;2.90;;;22.30;58.40;;;;;;5034527;28;20029;-70
2021/07/03 10:19:37;;;;;;;4.88;3.08;;;22.30;58.30;;;;;;5035435;28;20044;-70
2021/07/03 10:22:16;;;;;;;;;;;22.30;58.20;;;;;;5040422;28;20060;-70
2021/07/03 10:24:49;;;;;;;5.20;3.00;;;22.30;58.30;;;;;;5034708;28;20263;-70
2021/07/03 10:27:18;;;;;;;5.10;3.17;;;22.40;58.20;;;;;;5034571;28;20543;-70
2021/07/03 10:29:53;;;;;;;4.80;2.80;;;22.30;58.20;;;;;;5035196;28;20029;-70
2021/07/03 10:32:30;;;;;;;5.63;3.25;;;22.40;58.20;;;;;;5033859;28;20064;-70
2021/07/03 10:35:08;;;;;;;5.18;2.72;;;22.40;58.10;;;;;;5034301;28;20029;-70
2021/07/03 10:37:34;;;;;;;5.10;3.10;;;22.40;58.10;;;;;;5034395;28;20014;-70
2021/07/03 10:40:01;;;;;;;5.15;2.97;;;22.50;58.00;;;;;;5034089;28;20076;-70
2021/07/03 10:42:31;;;;;;;6.45;3.38;;;22.50;58.00;;;;;;5033945;28;20110;-69
2021/07/03 10:45:11;;;;;;;5.47;3.30;;;22.50;57.90;;;;;;5034356;28;20025;-71
2021/07/03 10:47:38;;;;;;;4.43;2.60;;;22.50;57.90;;;;;;5033563;28;20489;-70
2021/07/03 10:50:27;;;;;;;6.30;3.28;;;22.50;58.00;;;;;;5033870;28;20362;-71
2021/07/03 10:52:55;;;;;;;5.35;3.00;;;22.50;58.00;;;;;;5033580;28;20454;-70
2021/07/03 10:55:39;;;;;;;6.05;3.40;;;22.50;58.10;;;;;;5034154;28;20031;-70
2021/07/03 10:58:17;;;;;;;5.03;2.80;;;22.50;58.00;;;;;;5033111;28;20108;-70
2021/07/03 11:00:42;;;;;;;5.72;3.13;;;22.50;57.90;;;;;;5033696;28;20037;-70
2021/07/03 11:03:16;;;;;;;4.68;2.88;;;22.60;57.90;;;;;;5033566;28;20024;-70
2021/07/03 11:05:41;;;;;;;5.72;2.90;;;22.60;57.80;;;;;;5033615;28;20033;-70
2021/07/03 11:08:12;;;;;;;4.88;2.90;;;22.60;57.80;;;;;;5033383;28;20122;-70
2021/07/03 11:10:40;;;;;;;4.95;2.88;;;22.60;57.70;;;;;;5033274;28;20060;-70
2021/07/03 11:13:05;;;;;;;5.35;2.80;;;22.70;57.60;;;;;;5033333;28;20366;-70
2021/07/03 11:15:39;;;;;;;5.00;3.05;;;22.70;57.60;;;;;;5033603;28;20028;-70
2021/07/03 11:18:04;;;;;;;5.17;3.13;;;22.70;57.60;;;;;;5034786;28;20025;-69
2021/07/03 11:20:30;;;;;;;5.30;3.05;;;22.70;57.60;;;;;;5031911;28;20021;-70
2021/07/03 11:22:57;;;;;;;5.20;3.00;;;22.70;57.50;;;;;;5033095;28;20533;-70
2021/07/03 11:25:31;;;;;;;4.35;2.65;;;22.80;57.50;;;;;;5033422;28;20075;-70
2021/07/03 11:28:21;;;;;;;5.05;3.00;;;22.80;57.50;;;;;;5033302;28;20389;-70
2021/07/03 11:30:48;;;;;;;5.15;2.95;;;22.80;57.40;;;;;;5033390;28;20029;-70
2021/07/03 11:33:15;;;;;;;5.00;2.95;;;22.80;57.40;;;;;;5031507;28;20375;-70
2021/07/03 11:35:46;;;;;;;5.15;2.80;;;22.90;57.40;;;;;;5032949;28;20469;-70
2021/07/03 11:38:13;;;;;;;6.10;3.45;;;22.90;57.40;;;;;;5033085;28;20171;-70
2021/07/03 11:40:40;;;;;;;6.55;3.42;;;22.80;57.50;;;;;;5033262;28;20034;-70
2021/07/03 11:43:07;;;;;;;5.55;3.28;;;22.80;57.50;;;;;;5033339;28;20030;-69
2021/07/03 11:45:35;;;;;;;5.53;3.00;;;22.90;57.30;;;;;;5033055;28;20112;-70
2021/07/03 11:48:19;;;;;;;5.50;3.17;;;23.00;57.20;;;;;;5037052;28;20035;-70
2021/07/03 11:50:49;;;;;;;4.35;2.70;;;23.00;57.20;;;;;;5040942;28;20041;-70
2021/07/03 11:53:20;;;;;;;4.70;2.83;;;23.00;57.10;;;;;;5038065;28;20033;-70
2021/07/03 11:55:52;;;;;;;5.00;3.00;;;23.00;57.10;;;;;;5033659;28;20044;-69
2021/07/03 11:58:24;;;;;;;5.28;3.17;;;23.10;57.10;;;;;;5033684;28;20101;-70
2021/07/03 12:00:57;;;;;;;4.50;2.63;;;23.10;57.00;;;;;;5033674;28;20024;-70
2021/07/03 12:03:25;;;;;;;4.78;2.80;;;23.10;56.90;;;;;;5033292;28;20039;-70
2021/07/03 12:05:54;;;;;;;4.28;2.50;;;23.20;56.90;;;;;;5031711;28;20504;-69
2021/07/03 12:08:20;;;;;;;5.90;2.78;;;23.20;56.90;;;;;;5033678;28;20030;-69
2021/07/03 12:10:57;;;;;;;5.28;2.50;;;23.20;56.90;;;;;;5035312;28;20022;-69
2021/07/03 12:13:47;;;;;;;5.30;2.92;;;23.20;56.90;;;;;;5037043;28;20097;-69
2021/07/03 12:16:14;;;;;;;5.40;3.13;;;23.30;56.80;;;;;;5036954;28;20040;-69
2021/07/03 12:18:40;;;;;;;4.72;2.65;;;23.30;56.70;;;;;;5037295;28;20025;-69
2021/07/03 12:21:16;;;;;;;4.97;3.10;;;23.40;56.60;;;;;;5036947;28;20547;-69
2021/07/03 12:23:47;;;;;;;5.60;3.00;;;23.40;56.60;;;;;;5036634;28;20049;-69
2021/07/03 12:26:19;;;;;;;4.75;2.72;;;23.40;56.60;;;;;;5036559;28;20029;-69
2021/07/03 12:28:56;;;;;;;4.43;2.65;;;23.50;56.50;;;;;;5036652;28;20021;-69
2021/07/03 12:31:29;;;;;;;3.63;2.30;;;23.50;56.40;;;;;;5035055;28;20022;-68
2021/07/03 12:34:34;;;;;;;4.60;2.45;;;23.50;56.20;;;;;;5036879;28;20544;-69
2021/07/03 12:37:06;;;;;;;5.10;2.75;;;23.60;56.10;;;;;;5023873;28;20058;-69
2021/07/03 12:39:32;;;;;;;4.88;2.70;;;23.70;56.20;;;;;;5036177;28;20104;-70
2021/07/03 12:42:07;;;;;;;5.32;3.13;;;23.60;56.30;;;;;;5035889;28;20026;-69
2021/07/03 12:44:41;;;;;;;4.13;2.47;;;23.60;56.20;;;;;;5035974;28;20091;-69
2021/07/03 12:47:18;;;;;;;5.05;2.50;;;23.60;56.30;;;;;;5036089;28;20029;-69
2021/07/03 12:49:47;;;;;;;4.53;2.67;;;23.70;56.20;;;;;;5036345;28;20057;-69